Time;durP1;ratioP1;P1;durP2;ratioP2;P2;SDS_P1;SDS_P2;PMS_P1;PMS_P2;Temp;Humidity;BMP_temperature;BMP_pressure;BME280_temperature;BME280_humidity;BME280_pressure;Samples;Min_cycle;Max_cycle;Signal;HPM_P1;HPM_P2
2023/09/13 00:01:07;;;;;;;26.70;21.02;;;17.20;99.90;;;;;;4909649;29;20084;-73
2023/09/13 00:03:35;;;;;;;20.90;18.13;;;17.20;99.90;;;;;;4909100;29;20083;-70
2023/09/13 00:06:02;;;;;;;21.90;19.65;;;17.20;99.90;;;;;;4908103;29;20059;-67
2023/09/13 00:08:29;;;;;;;24.40;21.85;;;17.30;99.90;;;;;;4909831;29;20063;-71
2023/09/13 00:11:03;;;;;;;28.92;21.90;;;17.30;99.90;;;;;;4911239;29;20071;-67
2023/09/13 00:13:32;;;;;;;24.50;21.92;;;17.20;99.90;;;;;;4907565;29;20056;-67
2023/09/13 00:16:00;;;;;;;23.23;20.73;;;17.30;99.90;;;;;;4907487;29;20058;-71
2023/09/13 00:18:27;;;;;;;19.20;17.27;;;17.30;99.90;;;;;;4909070;29;20450;-69
2023/09/13 00:20:53;;;;;;;25.20;22.48;;;17.30;99.90;;;;;;4908666;29;20518;-68
2023/09/13 00:23:21;;;;;;;22.10;19.80;;;17.30;99.90;;;;;;4908387;29;20115;-71
2023/09/13 00:25:48;;;;;;;22.83;20.13;;;17.30;99.90;;;;;;4909963;29;20445;-70
2023/09/13 00:28:14;;;;;;;21.75;19.38;;;17.30;99.90;;;;;;4909613;29;20111;-73
2023/09/13 00:30:41;;;;;;;19.92;17.90;;;17.30;99.90;;;;;;4908712;29;20051;-67
2023/09/13 00:33:08;;;;;;;21.27;19.00;;;17.30;99.90;;;;;;4908677;29;20067;-69
2023/09/13 00:35:35;;;;;;;23.25;20.65;;;17.30;99.90;;;;;;4909475;29;20056;-69
2023/09/13 00:38:02;;;;;;;20.55;17.95;;;17.30;99.90;;;;;;4907390;29;20048;-68
2023/09/13 00:40:29;;;;;;;19.52;17.48;;;17.30;99.90;;;;;;4892891;29;20419;-69
2023/09/13 00:42:56;;;;;;;21.42;17.77;;;17.30;99.90;;;;;;4894159;29;20116;-70
2023/09/13 00:45:23;;;;;;;22.95;19.33;;;17.30;99.90;;;;;;4911019;29;20044;-67
2023/09/13 00:47:50;;;;;;;21.08;18.85;;;17.30;99.90;;;;;;4907109;29;20048;-74
2023/09/13 00:50:18;;;;;;;20.63;18.40;;;17.30;99.90;;;;;;4888997;29;20146;-69
2023/09/13 00:52:46;;;;;;;21.05;18.98;;;17.30;99.90;;;;;;4905476;29;20067;-68
2023/09/13 00:55:16;;;;;;;22.63;19.00;;;17.30;99.90;;;;;;4907478;29;20426;-68
2023/09/13 00:57:43;;;;;;;22.10;17.60;;;17.30;99.90;;;;;;4908635;29;21112;-67
2023/09/13 01:00:11;;;;;;;19.27;17.23;;;17.30;99.90;;;;;;4910710;29;20074;-69
2023/09/13 01:02:40;;;;;;;20.55;18.35;;;17.30;99.90;;;;;;4904700;29;20817;-67
2023/09/13 01:05:09;;;;;;;22.75;19.10;;;17.40;99.90;;;;;;4906771;29;20558;-68
2023/09/13 01:07:38;;;;;;;18.38;16.33;;;17.40;99.90;;;;;;4909932;29;20052;-69
2023/09/13 01:10:06;;;;;;;22.08;20.00;;;17.40;99.90;;;;;;4884653;29;20156;-71
2023/09/13 01:12:33;;;;;;;22.15;19.85;;;17.30;99.90;;;;;;4909822;29;20054;-73
2023/09/13 01:15:02;;;;;;;22.67;18.92;;;17.30;99.90;;;;;;4909394;29;20060;-71
2023/09/13 01:17:47;;;;;;;22.08;19.25;;;17.30;99.90;;;;;;4907632;29;20080;-68
2023/09/13 01:20:21;;;;;;;20.90;18.70;;;17.30;99.90;;;;;;4906502;29;20733;-68
2023/09/13 01:23:04;;;;;;;21.48;17.95;;;17.40;99.90;;;;;;4890876;29;20060;-73
2023/09/13 01:25:59;;;;;;;20.75;18.80;;;17.30;99.90;;;;;;4912358;29;20048;-71
2023/09/13 01:28:46;;;;;;;21.90;19.60;;;17.40;99.90;;;;;;4910090;29;20127;-69
2023/09/13 01:31:20;;;;;;;24.80;18.73;;;17.30;99.90;;;;;;4905390;29;20063;-72
2023/09/13 01:33:48;;;;;;;20.65;18.48;;;17.30;99.90;;;;;;4906781;29;20073;-70
2023/09/13 01:36:15;;;;;;;22.80;20.17;;;17.30;99.90;;;;;;4907612;29;20040;-71
2023/09/13 01:38:43;;;;;;;23.27;20.90;;;17.20;99.90;;;;;;4908579;29;20067;-71
2023/09/13 01:41:20;;;;;;;20.73;18.48;;;17.30;99.90;;;;;;4908722;29;20040;-68
2023/09/13 01:43:54;;;;;;;21.45;19.13;;;17.30;99.90;;;;;;4891030;29;20396;-73
2023/09/13 01:46:35;;;;;;;22.25;19.85;;;17.30;99.90;;;;;;4906282;29;20059;-67
2023/09/13 01:49:04;;;;;;;22.77;19.73;;;17.20;99.90;;;;;;4894096;29;20044;-69
2023/09/13 01:51:32;;;;;;;23.13;18.23;;;17.20;99.90;;;;;;4906375;29;20550;-75
2023/09/13 01:54:00;;;;;;;23.50;20.88;;;17.10;99.90;;;;;;4908086;29;20052;-67
2023/09/13 01:56:27;;;;;;;22.73;19.70;;;17.10;99.90;;;;;;4906326;29;20053;-68
2023/09/13 01:58:54;;;;;;;23.88;19.95;;;17.10;99.90;;;;;;4891107;29;20150;-73
2023/09/13 02:01:21;;;;;;;22.13;19.83;;;17.10;99.90;;;;;;4918180;29;20056;-68
2023/09/13 02:03:48;;;;;;;21.33;19.02;;;17.10;99.90;;;;;;4907245;29;20557;-73
2023/09/13 02:06:15;;;;;;;20.20;18.35;;;17.10;99.90;;;;;;4908388;29;20083;-74
2023/09/13 02:08:43;;;;;;;18.38;15.63;;;17.10;99.90;;;;;;4908925;29;20063;-69
2023/09/13 02:11:10;;;;;;;19.55;17.58;;;17.10;99.90;;;;;;4909712;29;20052;-69
2023/09/13 02:13:38;;;;;;;21.20;16.35;;;17.10;99.90;;;;;;4912130;29;20056;-71
2023/09/13 02:16:05;;;;;;;19.70;17.80;;;17.10;99.90;;;;;;4912253;29;20085;-69
2023/09/13 02:18:32;;;;;;;18.42;16.42;;;17.00;99.90;;;;;;4910498;29;20047;-68
2023/09/13 02:20:59;;;;;;;18.38;16.42;;;17.00;99.90;;;;;;4907858;29;20055;-71
2023/09/13 02:23:26;;;;;;;17.85;16.13;;;17.00;99.90;;;;;;4905490;29;20107;-69
2023/09/13 02:25:54;;;;;;;17.70;15.90;;;17.00;99.90;;;;;;4908598;29;20047;-68
2023/09/13 02:28:21;;;;;;;18.98;16.92;;;17.00;99.90;;;;;;4909693;29;20475;-75
2023/09/13 02:30:48;;;;;;;19.30;17.27;;;17.00;99.90;;;;;;4894448;29;20127;-72
2023/09/13 02:33:15;;;;;;;15.85;14.13;;;17.00;99.90;;;;;;4895655;29;20052;-69
2023/09/13 02:35:42;;;;;;;22.02;17.38;;;17.00;99.90;;;;;;4909859;29;20056;-69
2023/09/13 02:38:09;;;;;;;20.02;18.02;;;17.00;99.90;;;;;;4913540;29;20140;-70
2023/09/13 02:40:37;;;;;;;15.95;14.07;;;17.00;99.90;;;;;;4914083;29;20036;-71
2023/09/13 02:43:04;;;;;;;19.13;14.68;;;17.00;99.90;;;;;;4911885;29;21331;-75
2023/09/13 02:45:32;;;;;;;21.40;17.08;;;17.00;99.90;;;;;;4908956;29;20044;-70
2023/09/13 02:48:00;;;;;;;17.15;15.00;;;16.90;99.90;;;;;;4909862;29;20052;-70
2023/09/13 02:50:26;;;;;;;19.23;16.42;;;16.90;99.90;;;;;;4908760;29;20067;-75
2023/09/13 02:52:53;;;;;;;17.98;16.10;;;16.90;99.90;;;;;;4909618;29;20095;-71
2023/09/13 02:55:20;;;;;;;17.42;15.50;;;16.90;99.90;;;;;;4910204;29;20072;-70
2023/09/13 02:57:47;;;;;;;17.27;15.48;;;16.80;99.90;;;;;;4909855;29;20103;-74
2023/09/13 03:00:14;;;;;;;15.95;13.90;;;16.80;99.90;;;;;;4898881;29;20869;-68
2023/09/13 03:02:42;;;;;;;17.33;15.52;;;16.70;99.90;;;;;;4911051;29;20423;-69
2023/09/13 03:05:10;;;;;;;17.98;16.20;;;16.70;99.90;;;;;;4892848;29;20820;-70
2023/09/13 03:07:37;;;;;;;16.05;14.27;;;16.70;99.90;;;;;;4893292;29;20048;-68
2023/09/13 03:10:04;;;;;;;26.33;17.95;;;16.70;99.90;;;;;;4896583;29;20056;-69
2023/09/13 03:12:33;;;;;;;17.00;15.23;;;16.70;99.90;;;;;;4909207;29;20072;-71
2023/09/13 03:15:03;;;;;;;17.50;15.32;;;16.70;99.90;;;;;;4893857;29;20053;-69
2023/09/13 03:17:30;;;;;;;17.02;15.23;;;16.70;99.90;;;;;;4907275;29;20053;-68
2023/09/13 03:19:57;;;;;;;19.40;16.35;;;16.70;99.90;;;;;;4895972;29;20052;-67
2023/09/13 03:22:24;;;;;;;16.42;14.73;;;16.70;99.90;;;;;;4903312;29;20059;-70
2023/09/13 03:24:51;;;;;;;16.88;15.15;;;16.70;99.90;;;;;;4901892;29;20048;-71
2023/09/13 03:27:18;;;;;;;16.08;14.48;;;16.70;99.90;;;;;;4909783;29;20067;-71
2023/09/13 03:29:46;;;;;;;17.85;16.02;;;16.70;99.90;;;;;;4915687;29;20402;-70
2023/09/13 03:32:13;;;;;;;18.90;15.18;;;16.70;99.90;;;;;;4909844;29;20066;-71
2023/09/13 03:34:39;;;;;;;18.25;16.27;;;16.70;99.90;;;;;;4907400;29;20056;-69
2023/09/13 03:37:06;;;;;;;15.82;14.05;;;16.70;99.90;;;;;;4910097;29;20538;-69
2023/09/13 03:39:34;;;;;;;16.48;14.65;;;16.70;99.90;;;;;;4911160;29;20052;-73
2023/09/13 03:42:02;;;;;;;13.82;12.43;;;16.60;99.90;;;;;;4909954;29;20944;-68
2023/09/13 03:44:29;;;;;;;13.45;11.57;;;16.60;99.90;;;;;;4910712;29;20067;-68
2023/09/13 03:46:56;;;;;;;17.00;14.40;;;16.60;99.90;;;;;;4909937;29;20072;-70
2023/09/13 03:49:24;;;;;;;16.27;14.55;;;16.60;99.90;;;;;;4894654;29;20167;-70
2023/09/13 03:51:51;;;;;;;14.48;11.93;;;16.50;99.90;;;;;;4907546;29;20059;-68
2023/09/13 03:54:19;;;;;;;15.98;14.25;;;16.40;99.90;;;;;;4892741;29;20055;-70
2023/09/13 03:56:46;;;;;;;16.20;13.35;;;16.40;99.90;;;;;;4909328;29;20051;-72
2023/09/13 03:59:13;;;;;;;13.43;12.13;;;16.30;99.90;;;;;;4910192;29;20064;-68
2023/09/13 04:01:40;;;;;;;15.35;13.85;;;16.30;99.90;;;;;;4907052;29;20040;-67
2023/09/13 04:04:07;;;;;;;16.52;12.98;;;16.30;99.90;;;;;;4922288;29;20111;-68
2023/09/13 04:06:34;;;;;;;17.20;13.38;;;16.30;99.90;;;;;;4906941;29;20455;-70
2023/09/13 04:09:02;;;;;;;16.58;14.52;;;16.30;99.90;;;;;;4909854;29;20066;-68
2023/09/13 04:11:29;;;;;;;15.98;14.27;;;16.30;99.90;;;;;;4906510;29;20051;-72
2023/09/13 04:13:56;;;;;;;16.02;14.25;;;16.30;99.90;;;;;;4907749;29;20490;-67
2023/09/13 04:16:23;;;;;;;15.95;13.98;;;16.30;99.90;;;;;;4924220;29;20063;-70
2023/09/13 04:18:50;;;;;;;14.63;13.13;;;16.30;99.90;;;;;;4905688;29;20075;-69
2023/09/13 04:21:18;;;;;;;16.55;14.27;;;16.40;99.90;;;;;;4904236;29;20079;-71
2023/09/13 04:23:45;;;;;;;14.02;12.52;;;16.40;99.90;;;;;;4907361;29;20041;-69
2023/09/13 04:26:13;;;;;;;13.77;12.40;;;16.40;99.90;;;;;;4908927;29;20410;-68
2023/09/13 04:28:41;;;;;;;18.08;13.25;;;16.40;99.90;;;;;;4905732;29;20054;-68
2023/09/13 04:31:08;;;;;;;13.25;11.77;;;16.50;99.90;;;;;;4910033;29;20138;-68
2023/09/13 04:33:54;;;;;;;13.63;12.35;;;16.50;99.90;;;;;;4896987;29;20052;-69
2023/09/13 04:36:29;;;;;;;12.27;10.85;;;16.50;99.90;;;;;;4919336;29;20056;-68
2023/09/13 04:38:57;;;;;;;14.60;11.23;;;16.60;99.90;;;;;;4902720;29;20522;-71
2023/09/13 04:41:24;;;;;;;8.77;7.88;;;16.60;99.90;;;;;;4908425;29;20131;-69
2023/09/13 04:43:51;;;;;;;12.00;9.07;;;16.60;99.90;;;;;;4891972;29;20083;-72
2023/09/13 04:46:19;;;;;;;8.23;7.35;;;16.70;99.90;;;;;;4905584;29;20052;-67
2023/09/13 04:48:46;;;;;;;7.70;6.97;;;16.70;99.90;;;;;;4921317;29;20143;-74
2023/09/13 04:51:13;;;;;;;7.70;5.25;;;16.60;99.90;;;;;;4884555;29;20055;-69
2023/09/13 04:53:40;;;;;;;8.80;5.03;;;16.60;99.90;;;;;;4899678;29;20067;-68
2023/09/13 04:56:08;;;;;;;5.13;4.65;;;16.60;99.90;;;;;;4908702;29;20048;-65
2023/09/13 04:58:39;;;;;;;4.97;4.45;;;16.60;99.90;;;;;;4897046;29;20382;-72
2023/09/13 05:01:06;;;;;;;10.00;5.00;;;16.60;99.90;;;;;;4908458;29;20497;-69
2023/09/13 05:03:34;;;;;;;4.72;3.92;;;16.60;99.90;;;;;;4909569;29;20842;-69
2023/09/13 05:06:01;;;;;;;8.13;4.75;;;16.60;99.90;;;;;;4907201;29;20052;-75
2023/09/13 05:08:31;;;;;;;4.97;4.53;;;16.60;99.90;;;;;;4910009;29;20143;-73
2023/09/13 05:10:58;;;;;;;5.80;5.13;;;16.60;99.90;;;;;;4909078;29;20102;-65
2023/09/13 05:13:25;;;;;;;5.40;4.35;;;16.60;99.90;;;;;;4906937;29;20044;-76
2023/09/13 05:15:51;;;;;;;7.13;4.63;;;16.50;99.90;;;;;;4910282;29;20056;-73
2023/09/13 05:18:18;;;;;;;5.30;4.18;;;16.60;99.90;;;;;;4908696;29;20052;-68
2023/09/13 05:20:45;;;;;;;6.05;5.28;;;16.70;99.90;;;;;;4906162;29;20166;-71
2023/09/13 05:23:12;;;;;;;5.13;4.63;;;16.70;99.90;;;;;;4907193;29;20462;-71
2023/09/13 05:25:46;;;;;;;7.28;3.63;;;16.80;99.90;;;;;;4908438;29;20080;-70
2023/09/13 05:28:13;;;;;;;4.93;3.35;;;16.80;99.90;;;;;;4907952;29;20080;-68
2023/09/13 05:30:42;;;;;;;7.97;3.17;;;16.70;99.90;;;;;;4909072;29;20486;-68
2023/09/13 05:33:09;;;;;;;4.25;2.92;;;16.70;99.90;;;;;;4906409;29;20108;-68
2023/09/13 05:35:36;;;;;;;3.30;2.80;;;16.70;99.90;;;;;;4905997;29;20585;-70
2023/09/13 05:38:03;;;;;;;5.80;2.60;;;16.70;99.90;;;;;;4908618;29;20473;-69
2023/09/13 05:40:30;;;;;;;5.88;2.95;;;16.70;99.90;;;;;;4909028;29;20053;-69
2023/09/13 05:42:58;;;;;;;3.65;2.60;;;16.70;99.90;;;;;;4908259;29;20081;-69
2023/09/13 05:45:25;;;;;;;3.30;2.38;;;16.70;99.90;;;;;;4907641;29;20055;-72
2023/09/13 05:47:52;;;;;;;4.47;2.60;;;16.70;99.90;;;;;;4911311;29;20067;-68
2023/09/13 05:50:19;;;;;;;4.22;2.33;;;16.70;99.90;;;;;;4908776;29;20052;-70
2023/09/13 05:52:46;;;;;;;2.22;1.73;;;16.70;99.90;;;;;;4911743;29;20048;-70
2023/09/13 05:55:13;;;;;;;3.90;2.53;;;16.70;99.90;;;;;;4912607;29;20091;-68
2023/09/13 05:57:40;;;;;;;3.13;1.90;;;16.70;99.90;;;;;;4912751;29;20163;-69
2023/09/13 06:00:07;;;;;;;4.68;2.88;;;16.70;99.90;;;;;;4912934;29;20079;-72
2023/09/13 06:02:37;;;;;;;;;;;16.70;99.90;;;;;;4906158;29;20455;-68
2023/09/13 06:05:05;;;;;;;4.88;2.63;;;16.80;99.90;;;;;;4908237;29;19927;-68
2023/09/13 06:07:34;;;;;;;3.15;2.10;;;16.80;99.90;;;;;;4912046;29;20407;-68
2023/09/13 06:10:02;;;;;;;5.88;2.15;;;16.80;99.90;;;;;;4910192;29;20521;-73
2023/09/13 06:12:30;;;;;;;6.40;2.45;;;16.80;99.90;;;;;;4912899;29;20048;-68
2023/09/13 06:14:59;;;;;;;3.72;2.15;;;16.80;99.90;;;;;;4911795;29;20040;-67
2023/09/13 06:17:26;;;;;;;3.35;1.90;;;16.90;99.90;;;;;;4911777;29;20169;-69
2023/09/13 06:19:53;;;;;;;3.13;2.30;;;16.90;99.90;;;;;;4892886;29;20422;-68
2023/09/13 06:22:20;;;;;;;4.05;2.17;;;16.90;99.90;;;;;;4911237;29;20052;-67
2023/09/13 06:24:47;;;;;;;3.45;1.90;;;16.90;99.90;;;;;;4911294;29;20270;-68
2023/09/13 06:27:13;;;;;;;3.97;2.20;;;16.90;99.90;;;;;;4910479;29;20123;-71
2023/09/13 06:29:40;;;;;;;6.38;2.28;;;17.00;99.90;;;;;;4906720;29;20045;-68
2023/09/13 06:32:09;;;;;;;3.55;2.40;;;17.10;99.90;;;;;;4909283;29;20507;-69
2023/09/13 06:34:58;;;;;;;4.47;1.90;;;17.10;99.90;;;;;;4908967;29;20071;-68
2023/09/13 06:37:26;;;;;;;2.38;1.85;;;17.10;99.90;;;;;;4910017;29;20122;-73
2023/09/13 06:39:54;;;;;;;5.25;2.88;;;17.20;99.90;;;;;;4910283;29;20063;-70
2023/09/13 06:42:21;;;;;;;3.97;2.50;;;17.20;99.90;;;;;;4908472;29;20052;-71
2023/09/13 06:44:55;;;;;;;5.22;1.98;;;17.30;99.90;;;;;;4909412;29;20058;-69
2023/09/13 06:47:38;;;;;;;2.40;1.92;;;17.20;99.90;;;;;;4908839;29;20055;-68
2023/09/13 06:50:06;;;;;;;2.88;2.10;;;17.20;99.90;;;;;;4908630;29;20044;-74
2023/09/13 06:52:35;;;;;;;2.33;2.13;;;17.30;99.90;;;;;;4913217;29;20490;-68
2023/09/13 06:55:19;;;;;;;5.68;2.42;;;17.30;99.90;;;;;;4910693;29;20479;-69
2023/09/13 06:57:51;;;;;;;2.75;1.88;;;17.30;99.90;;;;;;4909775;29;20056;-69
2023/09/13 07:00:21;;;;;;;2.35;1.73;;;17.40;99.90;;;;;;4910078;29;20051;-68
2023/09/13 07:03:02;;;;;;;;;;;17.40;99.90;;;;;;4895714;29;20127;-70
2023/09/13 07:05:34;;;;;;;2.00;1.90;;;17.50;99.90;;;;;;4907170;29;19927;-68
2023/09/13 07:08:01;;;;;;;3.80;1.70;;;17.50;99.90;;;;;;4910002;29;20155;-69
2023/09/13 07:10:28;;;;;;;2.55;1.88;;;17.50;99.90;;;;;;4910772;29;20088;-70
2023/09/13 07:12:57;;;;;;;8.30;1.48;;;17.50;99.90;;;;;;4909499;29;20500;-70
2023/09/13 07:15:26;;;;;;;3.35;1.55;;;17.50;99.90;;;;;;4909025;29;20127;-68
2023/09/13 07:17:53;;;;;;;2.25;1.88;;;17.60;99.90;;;;;;4912747;29;20055;-72
2023/09/13 07:20:21;;;;;;;2.95;2.38;;;17.60;99.90;;;;;;4908777;29;20056;-68
2023/09/13 07:22:48;;;;;;;1.77;1.55;;;17.60;99.90;;;;;;4909771;29;20052;-70
2023/09/13 07:25:15;;;;;;;3.30;1.42;;;17.60;99.90;;;;;;4909845;29;20413;-69
2023/09/13 07:27:42;;;;;;;2.85;2.05;;;17.60;99.90;;;;;;4911230;29;20132;-71
2023/09/13 07:30:10;;;;;;;3.92;1.20;;;17.60;99.90;;;;;;4911279;29;20578;-72
2023/09/13 07:32:37;;;;;;;1.98;1.60;;;17.60;99.90;;;;;;4909683;29;20084;-69
2023/09/13 07:35:04;;;;;;;5.82;2.50;;;17.60;99.90;;;;;;4910382;29;20114;-68
2023/09/13 07:37:33;;;;;;;4.25;2.25;;;17.60;99.90;;;;;;4910281;29;20052;-71
2023/09/13 07:40:00;;;;;;;3.25;1.52;;;17.60;99.90;;;;;;4912688;29;20521;-68
2023/09/13 07:42:27;;;;;;;2.50;1.30;;;17.60;99.90;;;;;;4912137;29;20044;-68
2023/09/13 07:44:54;;;;;;;4.38;1.75;;;17.60;99.90;;;;;;4907704;29;20188;-70
2023/09/13 07:47:20;;;;;;;2.28;1.92;;;17.70;99.90;;;;;;4911188;29;20102;-68
2023/09/13 07:49:48;;;;;;;3.83;1.80;;;17.70;99.90;;;;;;4907244;29;20425;-72
2023/09/13 07:52:15;;;;;;;1.42;1.33;;;17.80;99.90;;;;;;4908657;29;20059;-71
2023/09/13 07:54:43;;;;;;;2.83;1.65;;;17.80;99.90;;;;;;4911464;29;20103;-68
2023/09/13 07:57:09;;;;;;;1.70;1.30;;;17.80;99.90;;;;;;4911145;29;20499;-70
2023/09/13 07:59:37;;;;;;;2.35;1.50;;;17.90;99.90;;;;;;4909646;29;20048;-72
2023/09/13 08:02:04;;;;;;;3.30;1.85;;;18.00;99.90;;;;;;4908820;29;20103;-68
2023/09/13 08:04:31;;;;;;;2.05;1.27;;;18.00;99.90;;;;;;4910072;29;20045;-69
2023/09/13 08:06:59;;;;;;;3.65;2.17;;;18.00;99.90;;;;;;4908764;29;20052;-71
2023/09/13 08:09:26;;;;;;;5.07;2.42;;;18.00;99.90;;;;;;4907940;29;20135;-68
2023/09/13 08:11:54;;;;;;;1.98;1.42;;;18.00;99.90;;;;;;4906240;29;20051;-68
2023/09/13 08:14:21;;;;;;;2.13;1.17;;;18.10;99.90;;;;;;4910617;29;20060;-68
2023/09/13 08:16:48;;;;;;;1.20;1.08;;;18.20;99.90;;;;;;4912663;29;20043;-68
2023/09/13 08:19:15;;;;;;;4.47;1.75;;;18.20;99.90;;;;;;4910284;29;20139;-69
2023/09/13 08:21:42;;;;;;;3.58;1.38;;;18.30;99.90;;;;;;4908143;29;20063;-69
2023/09/13 08:24:09;;;;;;;6.68;1.60;;;18.40;99.90;;;;;;4910682;29;20068;-68
2023/09/13 08:26:36;;;;;;;4.10;1.65;;;18.40;99.90;;;;;;4908932;29;20297;-71
2023/09/13 08:29:03;;;;;;;2.22;2.00;;;18.50;99.90;;;;;;4909040;29;20052;-68
2023/09/13 08:31:30;;;;;;;3.72;2.20;;;18.40;99.90;;;;;;4909222;29;20090;-68
2023/09/13 08:33:57;;;;;;;1.40;1.30;;;18.40;99.90;;;;;;4912033;29;20048;-70
2023/09/13 08:36:24;;;;;;;2.08;1.50;;;18.50;99.90;;;;;;4909017;29;20044;-73
2023/09/13 08:38:51;;;;;;;1.80;1.25;;;18.60;99.90;;;;;;4907700;29;20087;-69
2023/09/13 08:41:18;;;;;;;2.00;1.33;;;18.50;99.90;;;;;;4909726;29;20577;-71
2023/09/13 08:43:47;;;;;;;6.07;1.33;;;18.40;99.90;;;;;;4906710;29;20077;-68
2023/09/13 08:46:15;;;;;;;3.28;1.80;;;18.40;99.90;;;;;;4910850;29;20462;-70
2023/09/13 08:48:43;;;;;;;3.70;2.63;;;18.50;99.90;;;;;;4907738;29;20135;-68
2023/09/13 08:51:13;;;;;;;1.73;1.30;;;18.50;99.90;;;;;;4907156;29;20048;-70
2023/09/13 08:53:42;;;;;;;5.07;1.50;;;18.60;99.90;;;;;;4909001;29;20063;-73
2023/09/13 08:56:09;;;;;;;2.15;1.65;;;18.60;99.90;;;;;;4909497;29;20098;-69
2023/09/13 08:58:36;;;;;;;3.88;1.95;;;18.70;99.90;;;;;;4907630;29;20107;-69
2023/09/13 09:01:06;;;;;;;6.03;1.92;;;18.60;99.90;;;;;;4910100;29;20893;-69
2023/09/13 09:03:34;;;;;;;2.13;1.65;;;18.50;99.90;;;;;;4907955;29;20398;-71
2023/09/13 09:06:05;;;;;;;1.67;1.45;;;18.40;99.90;;;;;;4908355;29;20139;-69
2023/09/13 09:08:37;;;;;;;;;;;18.40;99.90;;;;;;4903895;29;20059;-68
2023/09/13 09:11:05;;;;;;;1.98;1.83;;;18.50;99.90;;;;;;4905234;29;19963;-72
2023/09/13 09:13:32;;;;;;;4.82;2.05;;;18.50;99.90;;;;;;4908854;29;20151;-69
2023/09/13 09:16:00;;;;;;;3.63;2.40;;;18.60;99.90;;;;;;4908447;29;20418;-68
2023/09/13 09:18:30;;;;;;;1.85;1.50;;;18.70;99.90;;;;;;4908950;29;20059;-69
2023/09/13 09:20:57;;;;;;;3.90;2.40;;;18.80;99.90;;;;;;4908913;29;20079;-69
2023/09/13 09:23:27;;;;;;;5.97;1.95;;;18.70;99.90;;;;;;4910784;29;20052;-70
2023/09/13 09:25:54;;;;;;;2.13;1.50;;;18.70;99.90;;;;;;4912916;29;20078;-68
2023/09/13 09:28:22;;;;;;;3.65;2.05;;;18.70;99.90;;;;;;4912040;29;20052;-73
2023/09/13 09:30:51;;;;;;;3.83;2.00;;;18.70;99.90;;;;;;4912455;29;20048;-69
2023/09/13 09:33:29;;;;;;;8.10;2.58;;;18.80;99.90;;;;;;4910619;29;20040;-68
2023/09/13 09:35:59;;;;;;;3.83;2.30;;;18.70;99.90;;;;;;4907969;29;20119;-74
2023/09/13 09:38:28;;;;;;;3.83;2.03;;;18.70;99.90;;;;;;4912507;29;20384;-70
2023/09/13 09:40:58;;;;;;;3.60;2.47;;;18.80;99.90;;;;;;4911759;29;20558;-68
2023/09/13 09:43:25;;;;;;;4.38;1.52;;;18.90;99.90;;;;;;4910650;29;20059;-71
2023/09/13 09:45:53;;;;;;;6.28;1.92;;;18.90;99.90;;;;;;4912054;29;20119;-71
2023/09/13 09:48:20;;;;;;;5.75;3.90;;;18.80;99.90;;;;;;4911886;29;20082;-69
2023/09/13 09:50:53;;;;;;;3.33;1.90;;;18.90;99.90;;;;;;4910158;29;20047;-74
2023/09/13 09:53:21;;;;;;;;;;;18.80;99.90;;;;;;4909810;29;20048;-69
2023/09/13 09:55:48;;;;;;;3.53;2.08;;;18.80;99.90;;;;;;4911720;29;20710;-71
2023/09/13 09:58:17;;;;;;;6.57;2.05;;;18.90;99.90;;;;;;4911688;29;20055;-69
2023/09/13 10:00:52;;;;;;;2.72;2.47;;;19.00;99.90;;;;;;4907143;29;20040;-74
2023/09/13 10:03:22;;;;;;;5.28;2.08;;;19.00;99.90;;;;;;4910501;29;20434;-68
2023/09/13 10:06:06;;;;;;;5.70;2.35;;;18.90;99.90;;;;;;4908663;29;20056;-70
2023/09/13 10:08:46;;;;;;;4.50;2.22;;;18.80;99.90;;;;;;4911099;29;20068;-68
2023/09/13 10:11:20;;;;;;;4.85;2.33;;;18.80;99.90;;;;;;4913398;29;20153;-68
2023/09/13 10:13:47;;;;;;;3.28;2.00;;;18.70;99.90;;;;;;4890884;29;20083;-72
2023/09/13 10:16:16;;;;;;;3.85;2.72;;;18.80;99.90;;;;;;4911461;29;20051;-68
2023/09/13 10:18:51;;;;;;;6.43;4.10;;;18.90;99.90;;;;;;4909117;29;20036;-67
2023/09/13 10:21:26;;;;;;;2.85;1.88;;;19.10;99.90;;;;;;4908113;29;20505;-70
2023/09/13 10:23:57;;;;;;;2.53;1.80;;;19.10;99.90;;;;;;4911646;29;20312;-69
2023/09/13 10:26:25;;;;;;;2.92;2.13;;;19.10;99.90;;;;;;4911912;29;20390;-68
2023/09/13 10:28:54;;;;;;;5.03;2.92;;;19.10;99.90;;;;;;4905211;29;20146;-70
2023/09/13 10:31:27;;;;;;;9.70;3.28;;;19.00;99.90;;;;;;4909195;29;20143;-69
2023/09/13 10:34:01;;;;;;;2.38;1.90;;;19.00;99.90;;;;;;4909205;29;20414;-69
2023/09/13 10:36:33;;;;;;;2.45;1.70;;;18.90;99.90;;;;;;4911011;29;20693;-67
2023/09/13 10:39:24;;;;;;;3.83;2.03;;;18.90;99.90;;;;;;4908585;29;20048;-68
2023/09/13 10:42:00;;;;;;;8.07;2.88;;;19.00;99.90;;;;;;4906568;29;20056;-71
2023/09/13 10:44:27;;;;;;;2.83;2.58;;;19.00;99.90;;;;;;4910422;29;20499;-71
2023/09/13 10:46:55;;;;;;;4.50;2.40;;;18.90;99.90;;;;;;4912672;29;20048;-68
2023/09/13 10:49:24;;;;;;;2.92;1.70;;;19.00;99.90;;;;;;4909613;29;20083;-74
2023/09/13 10:51:53;;;;;;;6.18;3.28;;;19.10;99.90;;;;;;4909681;29;20123;-73
2023/09/13 10:54:21;;;;;;;3.42;2.78;;;19.10;99.90;;;;;;4911074;29;20856;-71
2023/09/13 10:56:49;;;;;;;9.48;3.85;;;19.10;99.90;;;;;;4911294;29;20048;-69
2023/09/13 10:59:18;;;;;;;8.98;3.38;;;19.20;99.90;;;;;;4908857;29;20071;-70
2023/09/13 11:01:46;;;;;;;3.50;2.05;;;19.40;99.90;;;;;;4909462;29;20451;-71
2023/09/13 11:04:18;;;;;;;3.47;1.58;;;19.40;99.90;;;;;;4911726;29;20534;-70
2023/09/13 11:06:48;;;;;;;2.28;1.50;;;19.40;99.90;;;;;;4909396;29;20135;-72
2023/09/13 11:09:30;;;;;;;2.05;1.52;;;19.20;99.90;;;;;;4908768;29;20446;-69
2023/09/13 11:11:59;;;;;;;5.05;1.90;;;19.10;99.90;;;;;;4909473;29;20146;-71
2023/09/13 11:14:28;;;;;;;4.55;1.52;;;19.10;99.90;;;;;;4911602;29;20044;-70
2023/09/13 11:16:57;;;;;;;3.72;2.17;;;19.10;99.90;;;;;;4909922;29;20062;-73
2023/09/13 11:19:28;;;;;;;5.40;2.33;;;19.20;99.90;;;;;;4909299;29;20044;-68
2023/09/13 11:22:00;;;;;;;;;;;19.30;99.90;;;;;;4910582;29;20048;-71
2023/09/13 11:24:48;;;;;;;6.45;3.55;;;19.20;99.90;;;;;;4910289;29;19938;-68
2023/09/13 11:27:29;;;;;;;4.72;2.70;;;19.20;99.90;;;;;;4908646;29;20043;-67
2023/09/13 11:29:58;;;;;;;3.25;1.98;;;19.00;99.90;;;;;;4910052;29;20056;-72
2023/09/13 11:32:29;;;;;;;4.72;2.47;;;19.00;99.90;;;;;;4910457;29;20123;-68
2023/09/13 11:34:59;;;;;;;5.55;3.20;;;19.10;99.90;;;;;;4904839;29;20099;-68
2023/09/13 11:37:27;;;;;;;3.90;2.73;;;19.00;99.90;;;;;;4913546;29;20056;-70
2023/09/13 11:40:15;;;;;;;4.40;2.58;;;19.00;99.90;;;;;;4911899;29;20302;-67
2023/09/13 11:42:42;;;;;;;3.20;2.33;;;18.90;99.90;;;;;;4910015;29;20484;-70
2023/09/13 11:45:12;;;;;;;6.88;2.08;;;18.90;99.90;;;;;;4909036;29;20056;-70
2023/09/13 11:47:58;;;;;;;3.33;1.63;;;18.90;99.90;;;;;;4911278;29;20047;-72
2023/09/13 11:50:38;;;;;;;3.97;1.83;;;18.90;99.90;;;;;;4909116;29;20055;-68
2023/09/13 11:53:19;;;;;;;2.40;1.25;;;18.90;99.90;;;;;;4908393;29;20040;-70
2023/09/13 11:55:53;;;;;;;5.75;3.00;;;18.80;99.90;;;;;;4910245;29;20533;-72
2023/09/13 11:58:39;;;;;;;2.22;1.60;;;18.80;99.90;;;;;;4909210;29;20056;-67
2023/09/13 12:01:24;;;;;;;4.05;1.35;;;18.70;99.90;;;;;;4909027;29;20055;-68
2023/09/13 12:03:57;;;;;;;5.97;1.92;;;18.50;99.90;;;;;;4901824;29;20430;-67
2023/09/13 12:06:27;;;;;;;3.03;1.20;;;18.40;99.90;;;;;;4909276;29;20589;-68
2023/09/13 12:09:09;;;;;;;2.67;2.42;;;18.40;99.90;;;;;;4908690;29;20075;-69
2023/09/13 12:11:41;;;;;;;4.20;1.42;;;18.40;99.90;;;;;;4909422;29;20056;-71
2023/09/13 12:14:11;;;;;;;3.03;2.03;;;18.30;99.90;;;;;;4907859;29;20040;-67
2023/09/13 12:16:49;;;;;;;3.80;1.80;;;18.30;99.90;;;;;;4909346;29;20058;-69
2023/09/13 12:19:17;;;;;;;3.63;2.30;;;18.30;99.90;;;;;;4908179;29;20130;-68
2023/09/13 12:21:45;;;;;;;2.10;1.50;;;18.20;99.90;;;;;;4908467;29;20131;-68
2023/09/13 12:24:20;;;;;;;3.53;2.08;;;18.20;99.90;;;;;;4908973;29;20047;-71
2023/09/13 12:26:51;;;;;;;3.80;1.50;;;18.10;99.90;;;;;;4907780;29;20052;-68
2023/09/13 12:29:18;;;;;;;2.65;1.42;;;18.00;99.90;;;;;;4908264;29;20119;-68
2023/09/13 12:31:45;;;;;;;3.00;1.50;;;18.00;99.90;;;;;;4909714;29;20056;-72
2023/09/13 12:34:12;;;;;;;6.03;2.72;;;17.90;99.90;;;;;;4908318;29;20123;-70
2023/09/13 12:36:40;;;;;;;5.22;2.22;;;17.90;99.90;;;;;;4906626;29;20374;-71
2023/09/13 12:39:14;;;;;;;1.70;1.50;;;17.80;99.90;;;;;;4923027;29;20634;-72
2023/09/13 12:41:43;;;;;;;2.35;1.52;;;17.80;99.90;;;;;;4906073;29;20633;-68
2023/09/13 12:44:11;;;;;;;1.70;1.58;;;17.70;99.90;;;;;;4906595;29;20040;-69
2023/09/13 12:46:40;;;;;;;2.50;1.23;;;17.70;99.90;;;;;;4909099;29;20568;-68
2023/09/13 12:49:10;;;;;;;2.67;1.77;;;17.70;99.90;;;;;;4907829;29;20130;-70
2023/09/13 12:51:38;;;;;;;3.85;2.13;;;17.60;99.90;;;;;;4909555;29;20048;-68